sensor_id;sensor_type;location;lat;lon;timestamp;P1;durP1;ratioP1;P2;durP2;ratioP2
17686;SDS011;8962;52.538;13.266;2023-03-24T00:00:30;8.65;;;4.43;;
17686;SDS011;8962;52.538;13.266;2023-03-24T00:02:57;7.78;;;4.10;;
17686;SDS011;8962;52.538;13.266;2023-03-24T00:05:27;5.65;;;3.85;;
17686;SDS011;8962;52.538;13.266;2023-03-24T00:07:57;8.70;;;3.78;;
17686;SDS011;8962;52.538;13.266;2023-03-24T00:10:26;6.40;;;3.90;;
17686;SDS011;8962;52.538;13.266;2023-03-24T00:12:55;6.72;;;3.70;;
17686;SDS011;8962;52.538;13.266;2023-03-24T00:15:29;6.63;;;3.80;;
17686;SDS011;8962;52.538;13.266;2023-03-24T00:17:57;7.15;;;4.00;;
17686;SDS011;8962;52.538;13.266;2023-03-24T00:20:25;4.82;;;3.97;;
17686;SDS011;8962;52.538;13.266;2023-03-24T00:22:53;6.60;;;4.10;;
17686;SDS011;8962;52.538;13.266;2023-03-24T00:25:23;5.60;;;3.60;;
17686;SDS011;8962;52.538;13.266;2023-03-24T00:27:54;6.65;;;3.67;;
17686;SDS011;8962;52.538;13.266;2023-03-24T00:30:23;6.07;;;3.67;;
17686;SDS011;8962;52.538;13.266;2023-03-24T00:32:53;5.95;;;3.90;;
17686;SDS011;8962;52.538;13.266;2023-03-24T00:35:23;4.88;;;3.38;;
17686;SDS011;8962;52.538;13.266;2023-03-24T00:37:50;4.20;;;3.50;;
17686;SDS011;8962;52.538;13.266;2023-03-24T00:40:18;7.03;;;3.60;;
17686;SDS011;8962;52.538;13.266;2023-03-24T00:42:48;4.00;;;3.38;;
17686;SDS011;8962;52.538;13.266;2023-03-24T00:45:17;4.82;;;3.47;;
17686;SDS011;8962;52.538;13.266;2023-03-24T00:47:47;5.00;;;3.40;;
17686;SDS011;8962;52.538;13.266;2023-03-24T00:50:20;4.63;;;3.30;;
17686;SDS011;8962;52.538;13.266;2023-03-24T00:52:50;5.05;;;3.30;;
17686;SDS011;8962;52.538;13.266;2023-03-24T00:55:18;4.72;;;3.50;;
17686;SDS011;8962;52.538;13.266;2023-03-24T00:57:46;5.03;;;3.58;;
17686;SDS011;8962;52.538;13.266;2023-03-24T01:00:15;5.90;;;3.50;;
17686;SDS011;8962;52.538;13.266;2023-03-24T01:02:46;6.00;;;3.47;;
17686;SDS011;8962;52.538;13.266;2023-03-24T01:05:17;5.50;;;3.30;;
17686;SDS011;8962;52.538;13.266;2023-03-24T01:07:47;4.43;;;3.00;;
17686;SDS011;8962;52.538;13.266;2023-03-24T01:10:18;4.90;;;3.70;;
17686;SDS011;8962;52.538;13.266;2023-03-24T01:12:51;6.45;;;3.28;;
17686;SDS011;8962;52.538;13.266;2023-03-24T01:15:19;6.85;;;3.42;;
17686;SDS011;8962;52.538;13.266;2023-03-24T01:17:52;5.93;;;3.22;;
17686;SDS011;8962;52.538;13.266;2023-03-24T01:20:21;4.80;;;3.08;;
17686;SDS011;8962;52.538;13.266;2023-03-24T01:22:49;6.38;;;3.25;;
17686;SDS011;8962;52.538;13.266;2023-03-24T01:25:18;4.30;;;3.10;;
17686;SDS011;8962;52.538;13.266;2023-03-24T01:27:47;4.90;;;3.28;;
17686;SDS011;8962;52.538;13.266;2023-03-24T01:30:18;5.28;;;3.33;;
17686;SDS011;8962;52.538;13.266;2023-03-24T01:32:48;4.78;;;3.40;;
17686;SDS011;8962;52.538;13.266;2023-03-24T01:35:16;4.82;;;3.08;;
17686;SDS011;8962;52.538;13.266;2023-03-24T01:37:46;3.90;;;2.95;;
17686;SDS011;8962;52.538;13.266;2023-03-24T01:40:15;3.47;;;3.05;;
17686;SDS011;8962;52.538;13.266;2023-03-24T01:42:44;4.75;;;2.90;;
17686;SDS011;8962;52.538;13.266;2023-03-24T01:48:17;4.45;;;2.92;;
17686;SDS011;8962;52.538;13.266;2023-03-24T01:50:48;3.95;;;3.17;;
17686;SDS011;8962;52.538;13.266;2023-03-24T01:53:20;5.22;;;2.80;;
17686;SDS011;8962;52.538;13.266;2023-03-24T01:55:47;5.68;;;3.20;;
17686;SDS011;8962;52.538;13.266;2023-03-24T01:58:18;3.85;;;2.92;;
17686;SDS011;8962;52.538;13.266;2023-03-24T02:01:05;4.05;;;3.22;;
17686;SDS011;8962;52.538;13.266;2023-03-24T02:03:51;5.05;;;3.30;;
17686;SDS011;8962;52.538;13.266;2023-03-24T02:06:19;3.55;;;3.08;;
17686;SDS011;8962;52.538;13.266;2023-03-24T02:08:53;4.60;;;2.85;;
17686;SDS011;8962;52.538;13.266;2023-03-24T02:11:26;5.43;;;3.38;;
17686;SDS011;8962;52.538;13.266;2023-03-24T02:13:59;3.17;;;2.78;;
17686;SDS011;8962;52.538;13.266;2023-03-24T02:16:34;3.85;;;3.10;;
17686;SDS011;8962;52.538;13.266;2023-03-24T02:25:36;3.85;;;3.00;;
17686;SDS011;8962;52.538;13.266;2023-03-24T02:28:36;3.50;;;3.00;;
17686;SDS011;8962;52.538;13.266;2023-03-24T02:34:46;3.20;;;2.90;;
17686;SDS011;8962;52.538;13.266;2023-03-24T02:37:58;6.75;;;3.10;;
17686;SDS011;8962;52.538;13.266;2023-03-24T02:40:43;3.58;;;2.97;;
17686;SDS011;8962;52.538;13.266;2023-03-24T02:43:18;4.38;;;2.92;;
17686;SDS011;8962;52.538;13.266;2023-03-24T02:45:59;3.88;;;3.10;;
17686;SDS011;8962;52.538;13.266;2023-03-24T02:48:41;4.53;;;3.17;;
17686;SDS011;8962;52.538;13.266;2023-03-24T02:51:16;4.43;;;3.08;;
17686;SDS011;8962;52.538;13.266;2023-03-24T02:53:51;5.28;;;3.13;;
17686;SDS011;8962;52.538;13.266;2023-03-24T02:56:28;3.35;;;3.00;;
17686;SDS011;8962;52.538;13.266;2023-03-24T02:59:17;5.20;;;3.35;;
17686;SDS011;8962;52.538;13.266;2023-03-24T03:01:51;4.30;;;2.90;;
17686;SDS011;8962;52.538;13.266;2023-03-24T03:04:45;3.58;;;3.03;;
17686;SDS011;8962;52.538;13.266;2023-03-24T03:07:17;4.30;;;3.15;;
17686;SDS011;8962;52.538;13.266;2023-03-24T03:09:51;4.18;;;2.95;;
17686;SDS011;8962;52.538;13.266;2023-03-24T03:12:26;6.13;;;3.30;;
17686;SDS011;8962;52.538;13.266;2023-03-24T03:14:58;4.97;;;3.13;;
17686;SDS011;8962;52.538;13.266;2023-03-24T03:17:29;3.83;;;2.80;;
17686;SDS011;8962;52.538;13.266;2023-03-24T03:20:01;3.65;;;2.92;;
17686;SDS011;8962;52.538;13.266;2023-03-24T03:22:36;4.90;;;3.45;;
17686;SDS011;8962;52.538;13.266;2023-03-24T03:25:07;4.28;;;3.28;;
17686;SDS011;8962;52.538;13.266;2023-03-24T03:27:39;7.00;;;3.70;;
17686;SDS011;8962;52.538;13.266;2023-03-24T03:30:11;4.88;;;3.05;;
17686;SDS011;8962;52.538;13.266;2023-03-24T03:32:45;5.57;;;3.55;;
17686;SDS011;8962;52.538;13.266;2023-03-24T03:35:19;4.05;;;3.47;;
17686;SDS011;8962;52.538;13.266;2023-03-24T03:37:53;5.43;;;3.50;;
17686;SDS011;8962;52.538;13.266;2023-03-24T03:40:28;3.78;;;3.25;;
17686;SDS011;8962;52.538;13.266;2023-03-24T03:43:08;8.13;;;3.80;;
17686;SDS011;8962;52.538;13.266;2023-03-24T03:45:37;5.43;;;3.30;;
17686;SDS011;8962;52.538;13.266;2023-03-24T03:48:05;4.85;;;3.53;;
17686;SDS011;8962;52.538;13.266;2023-03-24T03:50:33;5.32;;;3.80;;
17686;SDS011;8962;52.538;13.266;2023-03-24T03:53:05;5.35;;;3.55;;
17686;SDS011;8962;52.538;13.266;2023-03-24T03:55:34;4.68;;;3.90;;
17686;SDS011;8962;52.538;13.266;2023-03-24T03:58:04;5.93;;;3.80;;
17686;SDS011;8962;52.538;13.266;2023-03-24T04:00:38;5.70;;;4.05;;
17686;SDS011;8962;52.538;13.266;2023-03-24T04:03:31;6.85;;;3.80;;
17686;SDS011;8962;52.538;13.266;2023-03-24T04:06:16;6.15;;;4.10;;
17686;SDS011;8962;52.538;13.266;2023-03-24T04:08:52;5.63;;;4.03;;
17686;SDS011;8962;52.538;13.266;2023-03-24T04:11:42;5.35;;;4.00;;
17686;SDS011;8962;52.538;13.266;2023-03-24T04:14:40;6.88;;;4.13;;
17686;SDS011;8962;52.538;13.266;2023-03-24T04:17:53;5.00;;;4.22;;
17686;SDS011;8962;52.538;13.266;2023-03-24T04:20:56;6.55;;;4.15;;
17686;SDS011;8962;52.538;13.266;2023-03-24T04:23:40;6.20;;;4.43;;
17686;SDS011;8962;52.538;13.266;2023-03-24T04:26:15;7.05;;;4.60;;
17686;SDS011;8962;52.538;13.266;2023-03-24T04:28:58;6.03;;;4.03;;
17686;SDS011;8962;52.538;13.266;2023-03-24T04:31:33;5.75;;;4.35;;
17686;SDS011;8962;52.538;13.266;2023-03-24T04:34:09;6.40;;;4.40;;
17686;SDS011;8962;52.538;13.266;2023-03-24T04:36:45;5.95;;;4.60;;
17686;SDS011;8962;52.538;13.266;2023-03-24T04:39:35;6.07;;;4.82;;
17686;SDS011;8962;52.538;13.266;2023-03-24T04:42:11;5.45;;;4.43;;
17686;SDS011;8962;52.538;13.266;2023-03-24T04:44:43;6.97;;;4.43;;
17686;SDS011;8962;52.538;13.266;2023-03-24T04:47:28;8.38;;;5.07;;
17686;SDS011;8962;52.538;13.266;2023-03-24T04:50:13;6.82;;;5.15;;
17686;SDS011;8962;52.538;13.266;2023-03-24T04:52:55;6.47;;;4.47;;
17686;SDS011;8962;52.538;13.266;2023-03-24T04:55:43;7.65;;;4.82;;
17686;SDS011;8962;52.538;13.266;2023-03-24T04:58:35;6.45;;;4.97;;
17686;SDS011;8962;52.538;13.266;2023-03-24T05:01:03;7.10;;;4.53;;
17686;SDS011;8962;52.538;13.266;2023-03-24T05:03:32;6.90;;;5.10;;
17686;SDS011;8962;52.538;13.266;2023-03-24T05:06:04;8.02;;;4.53;;
17686;SDS011;8962;52.538;13.266;2023-03-24T05:08:32;7.45;;;5.10;;
17686;SDS011;8962;52.538;13.266;2023-03-24T05:10:59;7.78;;;4.88;;
17686;SDS011;8962;52.538;13.266;2023-03-24T05:13:28;5.50;;;4.70;;
17686;SDS011;8962;52.538;13.266;2023-03-24T05:16:00;8.40;;;5.25;;
17686;SDS011;8962;52.538;13.266;2023-03-24T05:18:35;7.65;;;5.32;;
17686;SDS011;8962;52.538;13.266;2023-03-24T05:21:04;6.63;;;5.10;;
17686;SDS011;8962;52.538;13.266;2023-03-24T05:23:34;7.35;;;5.10;;
17686;SDS011;8962;52.538;13.266;2023-03-24T05:26:02;7.75;;;5.80;;
17686;SDS011;8962;52.538;13.266;2023-03-24T05:28:46;9.52;;;5.53;;
17686;SDS011;8962;52.538;13.266;2023-03-24T05:31:16;7.03;;;4.78;;
17686;SDS011;8962;52.538;13.266;2023-03-24T05:33:55;7.55;;;5.20;;
17686;SDS011;8962;52.538;13.266;2023-03-24T05:36:25;6.80;;;5.05;;
17686;SDS011;8962;52.538;13.266;2023-03-24T05:38:55;8.63;;;4.65;;
17686;SDS011;8962;52.538;13.266;2023-03-24T05:41:32;7.45;;;5.13;;
17686;SDS011;8962;52.538;13.266;2023-03-24T05:44:01;7.18;;;5.00;;
17686;SDS011;8962;52.538;13.266;2023-03-24T05:46:29;7.47;;;5.40;;
17686;SDS011;8962;52.538;13.266;2023-03-24T05:48:58;10.07;;;4.97;;
17686;SDS011;8962;52.538;13.266;2023-03-24T05:51:33;8.27;;;4.85;;
17686;SDS011;8962;52.538;13.266;2023-03-24T05:54:04;8.10;;;4.80;;
17686;SDS011;8962;52.538;13.266;2023-03-24T05:56:41;6.53;;;4.57;;
17686;SDS011;8962;52.538;13.266;2023-03-24T05:59:26;7.57;;;4.80;;
17686;SDS011;8962;52.538;13.266;2023-03-24T06:02:12;6.15;;;4.75;;
17686;SDS011;8962;52.538;13.266;2023-03-24T06:04:50;6.43;;;4.40;;
17686;SDS011;8962;52.538;13.266;2023-03-24T06:07:22;7.82;;;4.53;;
17686;SDS011;8962;52.538;13.266;2023-03-24T06:09:51;6.18;;;4.70;;
17686;SDS011;8962;52.538;13.266;2023-03-24T06:12:22;6.63;;;4.38;;
17686;SDS011;8962;52.538;13.266;2023-03-24T06:14:58;7.10;;;4.38;;
17686;SDS011;8962;52.538;13.266;2023-03-24T06:17:27;8.70;;;4.45;;
17686;SDS011;8962;52.538;13.266;2023-03-24T06:19:55;7.53;;;4.07;;
17686;SDS011;8962;52.538;13.266;2023-03-24T06:22:45;5.28;;;4.22;;
17686;SDS011;8962;52.538;13.266;2023-03-24T06:25:16;7.53;;;4.35;;
17686;SDS011;8962;52.538;13.266;2023-03-24T06:28:08;4.65;;;4.10;;
17686;SDS011;8962;52.538;13.266;2023-03-24T06:30:41;7.13;;;4.47;;
17686;SDS011;8962;52.538;13.266;2023-03-24T06:33:13;4.80;;;4.10;;
17686;SDS011;8962;52.538;13.266;2023-03-24T06:35:42;4.47;;;3.78;;
17686;SDS011;8962;52.538;13.266;2023-03-24T06:38:14;6.30;;;4.25;;
17686;SDS011;8962;52.538;13.266;2023-03-24T06:40:43;6.30;;;4.28;;
17686;SDS011;8962;52.538;13.266;2023-03-24T06:43:12;4.93;;;3.90;;
17686;SDS011;8962;52.538;13.266;2023-03-24T06:45:43;5.57;;;4.03;;
17686;SDS011;8962;52.538;13.266;2023-03-24T06:48:17;5.70;;;3.70;;
17686;SDS011;8962;52.538;13.266;2023-03-24T06:50:45;6.35;;;4.10;;
17686;SDS011;8962;52.538;13.266;2023-03-24T06:53:14;5.15;;;4.07;;
17686;SDS011;8962;52.538;13.266;2023-03-24T06:55:44;7.55;;;4.15;;
17686;SDS011;8962;52.538;13.266;2023-03-24T06:58:14;6.28;;;4.10;;
17686;SDS011;8962;52.538;13.266;2023-03-24T07:00:58;8.10;;;4.15;;
17686;SDS011;8962;52.538;13.266;2023-03-24T07:03:34;5.60;;;4.47;;
17686;SDS011;8962;52.538;13.266;2023-03-24T07:06:26;7.43;;;4.20;;
17686;SDS011;8962;52.538;13.266;2023-03-24T07:09:02;5.68;;;4.07;;
17686;SDS011;8962;52.538;13.266;2023-03-24T07:11:32;6.25;;;4.35;;
17686;SDS011;8962;52.538;13.266;2023-03-24T07:14:02;6.43;;;4.32;;
17686;SDS011;8962;52.538;13.266;2023-03-24T07:16:33;5.53;;;4.25;;
17686;SDS011;8962;52.538;13.266;2023-03-24T07:19:18;5.72;;;4.03;;
17686;SDS011;8962;52.538;13.266;2023-03-24T07:21:52;5.68;;;4.18;;
17686;SDS011;8962;52.538;13.266;2023-03-24T07:24:37;6.72;;;4.32;;
17686;SDS011;8962;52.538;13.266;2023-03-24T07:27:26;5.97;;;4.22;;
17686;SDS011;8962;52.538;13.266;2023-03-24T07:29:53;7.10;;;4.63;;
17686;SDS011;8962;52.538;13.266;2023-03-24T07:32:29;5.93;;;4.13;;
17686;SDS011;8962;52.538;13.266;2023-03-24T07:34:59;5.10;;;3.80;;
17686;SDS011;8962;52.538;13.266;2023-03-24T07:37:28;7.25;;;4.03;;
17686;SDS011;8962;52.538;13.266;2023-03-24T07:40:09;11.85;;;4.65;;
17686;SDS011;8962;52.538;13.266;2023-03-24T07:42:38;6.30;;;4.38;;
17686;SDS011;8962;52.538;13.266;2023-03-24T07:45:35;8.35;;;4.60;;
17686;SDS011;8962;52.538;13.266;2023-03-24T07:48:05;5.30;;;3.80;;
17686;SDS011;8962;52.538;13.266;2023-03-24T07:50:36;6.18;;;3.63;;
17686;SDS011;8962;52.538;13.266;2023-03-24T07:53:20;6.25;;;4.05;;
17686;SDS011;8962;52.538;13.266;2023-03-24T07:55:48;8.65;;;3.72;;
17686;SDS011;8962;52.538;13.266;2023-03-24T07:58:21;7.40;;;4.22;;
17686;SDS011;8962;52.538;13.266;2023-03-24T08:01:01;7.07;;;4.57;;
17686;SDS011;8962;52.538;13.266;2023-03-24T08:03:38;5.60;;;4.13;;
17686;SDS011;8962;52.538;13.266;2023-03-24T08:06:15;6.63;;;4.40;;
17686;SDS011;8962;52.538;13.266;2023-03-24T08:08:48;5.25;;;3.90;;
17686;SDS011;8962;52.538;13.266;2023-03-24T08:11:17;7.32;;;4.32;;
17686;SDS011;8962;52.538;13.266;2023-03-24T08:13:44;6.68;;;4.10;;
17686;SDS011;8962;52.538;13.266;2023-03-24T08:16:13;5.75;;;4.30;;
17686;SDS011;8962;52.538;13.266;2023-03-24T08:18:40;6.63;;;4.18;;
17686;SDS011;8962;52.538;13.266;2023-03-24T08:21:07;5.72;;;3.72;;
17686;SDS011;8962;52.538;13.266;2023-03-24T08:23:37;6.85;;;4.10;;
17686;SDS011;8962;52.538;13.266;2023-03-24T08:26:09;6.38;;;4.65;;
17686;SDS011;8962;52.538;13.266;2023-03-24T08:28:38;7.93;;;4.30;;
17686;SDS011;8962;52.538;13.266;2023-03-24T08:31:05;7.30;;;4.15;;
17686;SDS011;8962;52.538;13.266;2023-03-24T08:33:34;8.35;;;4.47;;
17686;SDS011;8962;52.538;13.266;2023-03-24T08:36:02;7.25;;;4.10;;
17686;SDS011;8962;52.538;13.266;2023-03-24T08:38:29;5.85;;;4.22;;
17686;SDS011;8962;52.538;13.266;2023-03-24T08:40:57;6.13;;;3.92;;
17686;SDS011;8962;52.538;13.266;2023-03-24T08:43:26;7.20;;;3.90;;
17686;SDS011;8962;52.538;13.266;2023-03-24T08:45:56;6.07;;;4.63;;
17686;SDS011;8962;52.538;13.266;2023-03-24T08:48:23;8.57;;;4.20;;
17686;SDS011;8962;52.538;13.266;2023-03-24T08:50:54;7.28;;;4.35;;
17686;SDS011;8962;52.538;13.266;2023-03-24T08:53:23;6.78;;;4.05;;
17686;SDS011;8962;52.538;13.266;2023-03-24T08:55:50;4.63;;;3.67;;
17686;SDS011;8962;52.538;13.266;2023-03-24T08:58:18;6.28;;;4.30;;
17686;SDS011;8962;52.538;13.266;2023-03-24T09:00:47;8.27;;;3.90;;
17686;SDS011;8962;52.538;13.266;2023-03-24T09:03:18;8.75;;;4.63;;
17686;SDS011;8962;52.538;13.266;2023-03-24T09:05:46;6.75;;;4.35;;
17686;SDS011;8962;52.538;13.266;2023-03-24T09:08:14;5.70;;;3.97;;
17686;SDS011;8962;52.538;13.266;2023-03-24T09:10:48;7.35;;;4.22;;
17686;SDS011;8962;52.538;13.266;2023-03-24T09:13:15;5.28;;;4.00;;
17686;SDS011;8962;52.538;13.266;2023-03-24T09:15:46;4.75;;;3.83;;
17686;SDS011;8962;52.538;13.266;2023-03-24T09:18:15;4.97;;;3.80;;
17686;SDS011;8962;52.538;13.266;2023-03-24T09:20:45;6.05;;;3.80;;
17686;SDS011;8962;52.538;13.266;2023-03-24T09:23:15;6.05;;;3.92;;
17686;SDS011;8962;52.538;13.266;2023-03-24T09:25:42;6.57;;;3.90;;
17686;SDS011;8962;52.538;13.266;2023-03-24T09:28:10;5.93;;;4.03;;
17686;SDS011;8962;52.538;13.266;2023-03-24T09:30:39;5.50;;;3.83;;
17686;SDS011;8962;52.538;13.266;2023-03-24T09:33:06;6.20;;;4.00;;
17686;SDS011;8962;52.538;13.266;2023-03-24T09:35:35;5.32;;;3.53;;
17686;SDS011;8962;52.538;13.266;2023-03-24T09:38:04;7.07;;;3.67;;
17686;SDS011;8962;52.538;13.266;2023-03-24T09:40:35;7.60;;;3.50;;
17686;SDS011;8962;52.538;13.266;2023-03-24T09:43:04;4.88;;;3.28;;
17686;SDS011;8962;52.538;13.266;2023-03-24T09:45:35;3.55;;;3.22;;
17686;SDS011;8962;52.538;13.266;2023-03-24T09:48:10;4.50;;;3.58;;
17686;SDS011;8962;52.538;13.266;2023-03-24T09:50:48;6.20;;;3.35;;
17686;SDS011;8962;52.538;13.266;2023-03-24T09:53:25;5.22;;;3.50;;
17686;SDS011;8962;52.538;13.266;2023-03-24T09:55:57;4.85;;;3.28;;
17686;SDS011;8962;52.538;13.266;2023-03-24T09:58:28;4.50;;;3.60;;
17686;SDS011;8962;52.538;13.266;2023-03-24T10:00:57;5.97;;;3.40;;
17686;SDS011;8962;52.538;13.266;2023-03-24T10:03:25;4.88;;;3.70;;
17686;SDS011;8962;52.538;13.266;2023-03-24T10:05:57;5.70;;;3.85;;
17686;SDS011;8962;52.538;13.266;2023-03-24T10:08:30;5.72;;;3.60;;
17686;SDS011;8962;52.538;13.266;2023-03-24T10:11:02;5.45;;;3.30;;
17686;SDS011;8962;52.538;13.266;2023-03-24T10:13:35;3.90;;;2.65;;
17686;SDS011;8962;52.538;13.266;2023-03-24T10:16:14;5.72;;;3.28;;
17686;SDS011;8962;52.538;13.266;2023-03-24T10:18:50;5.07;;;2.75;;
17686;SDS011;8962;52.538;13.266;2023-03-24T10:21:24;5.80;;;2.60;;
17686;SDS011;8962;52.538;13.266;2023-03-24T10:23:56;3.33;;;2.28;;
17686;SDS011;8962;52.538;13.266;2023-03-24T10:26:32;6.15;;;2.85;;
17686;SDS011;8962;52.538;13.266;2023-03-24T10:29:08;5.15;;;2.90;;
17686;SDS011;8962;52.538;13.266;2023-03-24T10:31:56;4.60;;;2.88;;
17686;SDS011;8962;52.538;13.266;2023-03-24T10:34:27;5.82;;;3.30;;
17686;SDS011;8962;52.538;13.266;2023-03-24T10:36:59;4.70;;;3.15;;
17686;SDS011;8962;52.538;13.266;2023-03-24T10:39:28;3.33;;;2.75;;
17686;SDS011;8962;52.538;13.266;2023-03-24T10:41:58;5.18;;;2.60;;
17686;SDS011;8962;52.538;13.266;2023-03-24T10:44:26;5.63;;;3.17;;
17686;SDS011;8962;52.538;13.266;2023-03-24T10:46:55;3.40;;;3.00;;
17686;SDS011;8962;52.538;13.266;2023-03-24T10:49:28;3.92;;;3.03;;
17686;SDS011;8962;52.538;13.266;2023-03-24T10:52:00;4.60;;;3.50;;
17686;SDS011;8962;52.538;13.266;2023-03-24T10:54:33;7.30;;;3.17;;
17686;SDS011;8962;52.538;13.266;2023-03-24T10:57:02;6.43;;;3.20;;
17686;SDS011;8962;52.538;13.266;2023-03-24T10:59:46;4.20;;;3.15;;
17686;SDS011;8962;52.538;13.266;2023-03-24T11:02:21;4.53;;;2.85;;
17686;SDS011;8962;52.538;13.266;2023-03-24T11:04:52;4.53;;;3.08;;
17686;SDS011;8962;52.538;13.266;2023-03-24T11:07:27;7.03;;;3.05;;
17686;SDS011;8962;52.538;13.266;2023-03-24T11:09:59;7.15;;;3.33;;
17686;SDS011;8962;52.538;13.266;2023-03-24T11:12:32;5.13;;;3.40;;
17686;SDS011;8962;52.538;13.266;2023-03-24T11:15:14;7.55;;;3.17;;
17686;SDS011;8962;52.538;13.266;2023-03-24T11:17:43;7.30;;;4.55;;
17686;SDS011;8962;52.538;13.266;2023-03-24T11:20:15;7.97;;;4.30;;
17686;SDS011;8962;52.538;13.266;2023-03-24T11:22:55;5.90;;;3.17;;
17686;SDS011;8962;52.538;13.266;2023-03-24T11:25:24;6.47;;;3.40;;
17686;SDS011;8962;52.538;13.266;2023-03-24T11:27:53;3.80;;;2.90;;
17686;SDS011;8962;52.538;13.266;2023-03-24T11:30:24;4.35;;;3.33;;
17686;SDS011;8962;52.538;13.266;2023-03-24T11:32:55;7.45;;;4.95;;
17686;SDS011;8962;52.538;13.266;2023-03-24T11:35:23;3.20;;;2.90;;
17686;SDS011;8962;52.538;13.266;2023-03-24T11:37:51;7.18;;;3.05;;
17686;SDS011;8962;52.538;13.266;2023-03-24T11:40:21;4.80;;;3.40;;
17686;SDS011;8962;52.538;13.266;2023-03-24T11:42:52;4.18;;;3.20;;
17686;SDS011;8962;52.538;13.266;2023-03-24T11:45:22;5.38;;;3.35;;
17686;SDS011;8962;52.538;13.266;2023-03-24T11:47:54;3.53;;;2.70;;
17686;SDS011;8962;52.538;13.266;2023-03-24T11:50:23;3.78;;;2.85;;
17686;SDS011;8962;52.538;13.266;2023-03-24T11:52:54;6.20;;;3.38;;
17686;SDS011;8962;52.538;13.266;2023-03-24T11:55:32;4.18;;;3.00;;
17686;SDS011;8962;52.538;13.266;2023-03-24T11:58:02;4.20;;;2.75;;
17686;SDS011;8962;52.538;13.266;2023-03-24T12:00:36;3.63;;;2.78;;
17686;SDS011;8962;52.538;13.266;2023-03-24T12:03:15;4.35;;;3.03;;
17686;SDS011;8962;52.538;13.266;2023-03-24T12:06:13;3.60;;;2.65;;
17686;SDS011;8962;52.538;13.266;2023-03-24T12:08:51;5.35;;;2.60;;
17686;SDS011;8962;52.538;13.266;2023-03-24T12:11:30;4.88;;;2.65;;
17686;SDS011;8962;52.538;13.266;2023-03-24T12:14:05;4.22;;;2.70;;
17686;SDS011;8962;52.538;13.266;2023-03-24T12:16:39;3.28;;;2.30;;
17686;SDS011;8962;52.538;13.266;2023-03-24T12:19:34;6.07;;;3.63;;
17686;SDS011;8962;52.538;13.266;2023-03-24T12:22:09;3.88;;;2.58;;
17686;SDS011;8962;52.538;13.266;2023-03-24T12:24:51;7.80;;;4.15;;
17686;SDS011;8962;52.538;13.266;2023-03-24T12:27:38;4.55;;;2.65;;
17686;SDS011;8962;52.538;13.266;2023-03-24T12:30:13;3.22;;;2.70;;
17686;SDS011;8962;52.538;13.266;2023-03-24T12:32:50;7.05;;;3.20;;
17686;SDS011;8962;52.538;13.266;2023-03-24T12:35:37;4.65;;;2.50;;
17686;SDS011;8962;52.538;13.266;2023-03-24T12:38:20;4.82;;;2.80;;
17686;SDS011;8962;52.538;13.266;2023-03-24T12:41:00;2.92;;;2.50;;
17686;SDS011;8962;52.538;13.266;2023-03-24T12:43:39;3.28;;;2.42;;
17686;SDS011;8962;52.538;13.266;2023-03-24T12:49:14;4.93;;;2.72;;
17686;SDS011;8962;52.538;13.266;2023-03-24T12:52:08;4.45;;;2.47;;
17686;SDS011;8962;52.538;13.266;2023-03-24T12:54:45;3.58;;;2.70;;
17686;SDS011;8962;52.538;13.266;2023-03-24T12:57:21;4.32;;;2.30;;
17686;SDS011;8962;52.538;13.266;2023-03-24T12:59:54;5.97;;;2.20;;
17686;SDS011;8962;52.538;13.266;2023-03-24T13:02:26;5.55;;;2.67;;
17686;SDS011;8962;52.538;13.266;2023-03-24T13:04:59;3.72;;;2.55;;
17686;SDS011;8962;52.538;13.266;2023-03-24T13:07:30;6.55;;;2.17;;
17686;SDS011;8962;52.538;13.266;2023-03-24T13:10:02;5.95;;;1.77;;
17686;SDS011;8962;52.538;13.266;2023-03-24T13:12:38;3.88;;;1.70;;
17686;SDS011;8962;52.538;13.266;2023-03-24T13:15:14;2.85;;;1.60;;
17686;SDS011;8962;52.538;13.266;2023-03-24T13:17:44;5.82;;;1.90;;
17686;SDS011;8962;52.538;13.266;2023-03-24T13:20:19;3.83;;;1.70;;
17686;SDS011;8962;52.538;13.266;2023-03-24T13:22:51;5.65;;;1.80;;
17686;SDS011;8962;52.538;13.266;2023-03-24T13:25:21;4.53;;;1.70;;
17686;SDS011;8962;52.538;13.266;2023-03-24T13:27:56;2.97;;;1.77;;
17686;SDS011;8962;52.538;13.266;2023-03-24T13:30:34;7.90;;;2.13;;
17686;SDS011;8962;52.538;13.266;2023-03-24T13:33:04;4.38;;;1.80;;
17686;SDS011;8962;52.538;13.266;2023-03-24T13:35:38;3.65;;;2.00;;
17686;SDS011;8962;52.538;13.266;2023-03-24T13:38:25;4.97;;;1.88;;
17686;SDS011;8962;52.538;13.266;2023-03-24T13:40:59;2.13;;;1.60;;
17686;SDS011;8962;52.538;13.266;2023-03-24T13:43:32;3.58;;;2.00;;
17686;SDS011;8962;52.538;13.266;2023-03-24T13:46:01;3.85;;;1.77;;
17686;SDS011;8962;52.538;13.266;2023-03-24T13:48:34;2.22;;;1.75;;
17686;SDS011;8962;52.538;13.266;2023-03-24T13:51:06;3.95;;;1.88;;
17686;SDS011;8962;52.538;13.266;2023-03-24T13:53:43;3.15;;;1.65;;
17686;SDS011;8962;52.538;13.266;2023-03-24T13:56:20;6.95;;;1.70;;
17686;SDS011;8962;52.538;13.266;2023-03-24T13:59:07;3.15;;;1.65;;
17686;SDS011;8962;52.538;13.266;2023-03-24T14:04:46;3.97;;;1.85;;
17686;SDS011;8962;52.538;13.266;2023-03-24T14:07:24;7.05;;;2.00;;
17686;SDS011;8962;52.538;13.266;2023-03-24T14:10:00;6.78;;;1.73;;
17686;SDS011;8962;52.538;13.266;2023-03-24T14:12:30;3.67;;;1.73;;
17686;SDS011;8962;52.538;13.266;2023-03-24T14:15:06;4.22;;;2.03;;
17686;SDS011;8962;52.538;13.266;2023-03-24T14:17:45;4.35;;;1.90;;
17686;SDS011;8962;52.538;13.266;2023-03-24T14:20:28;2.90;;;1.80;;
17686;SDS011;8962;52.538;13.266;2023-03-24T14:22:59;6.35;;;1.90;;
17686;SDS011;8962;52.538;13.266;2023-03-24T14:25:28;2.80;;;1.50;;
17686;SDS011;8962;52.538;13.266;2023-03-24T14:28:18;6.10;;;1.83;;
17686;SDS011;8962;52.538;13.266;2023-03-24T14:31:00;5.88;;;1.80;;
17686;SDS011;8962;52.538;13.266;2023-03-24T14:33:35;5.13;;;1.98;;
17686;SDS011;8962;52.538;13.266;2023-03-24T14:36:04;5.85;;;1.80;;
17686;SDS011;8962;52.538;13.266;2023-03-24T14:38:39;4.93;;;1.95;;
17686;SDS011;8962;52.538;13.266;2023-03-24T14:41:10;5.10;;;1.65;;
17686;SDS011;8962;52.538;13.266;2023-03-24T14:43:54;4.53;;;1.60;;
17686;SDS011;8962;52.538;13.266;2023-03-24T14:46:36;5.97;;;1.63;;
17686;SDS011;8962;52.538;13.266;2023-03-24T14:49:10;4.57;;;1.48;;
17686;SDS011;8962;52.538;13.266;2023-03-24T14:51:43;5.05;;;1.67;;
17686;SDS011;8962;52.538;13.266;2023-03-24T14:54:16;6.38;;;1.63;;
17686;SDS011;8962;52.538;13.266;2023-03-24T14:56:55;7.20;;;1.67;;
17686;SDS011;8962;52.538;13.266;2023-03-24T14:59:27;4.32;;;1.73;;
17686;SDS011;8962;52.538;13.266;2023-03-24T15:02:02;6.55;;;1.73;;
17686;SDS011;8962;52.538;13.266;2023-03-24T15:04:40;3.72;;;1.60;;
17686;SDS011;8962;52.538;13.266;2023-03-24T15:07:24;4.38;;;1.60;;
17686;SDS011;8962;52.538;13.266;2023-03-24T15:09:51;4.82;;;1.67;;
17686;SDS011;8962;52.538;13.266;2023-03-24T15:12:19;4.90;;;1.70;;
17686;SDS011;8962;52.538;13.266;2023-03-24T15:14:46;3.42;;;1.70;;
17686;SDS011;8962;52.538;13.266;2023-03-24T15:17:16;4.07;;;1.52;;
17686;SDS011;8962;52.538;13.266;2023-03-24T15:19:49;6.28;;;1.80;;
17686;SDS011;8962;52.538;13.266;2023-03-24T15:22:18;9.65;;;2.33;;
17686;SDS011;8962;52.538;13.266;2023-03-24T15:24:45;5.10;;;2.15;;
17686;SDS011;8962;52.538;13.266;2023-03-24T15:27:18;5.05;;;2.05;;
17686;SDS011;8962;52.538;13.266;2023-03-24T15:29:55;4.88;;;2.22;;
17686;SDS011;8962;52.538;13.266;2023-03-24T15:32:23;5.43;;;2.10;;
17686;SDS011;8962;52.538;13.266;2023-03-24T15:34:57;7.18;;;2.30;;
17686;SDS011;8962;52.538;13.266;2023-03-24T15:37:30;3.33;;;1.70;;
17686;SDS011;8962;52.538;13.266;2023-03-24T15:39:58;6.13;;;1.85;;
17686;SDS011;8962;52.538;13.266;2023-03-24T15:42:26;7.97;;;2.50;;
17686;SDS011;8962;52.538;13.266;2023-03-24T15:45:09;6.13;;;2.20;;
17686;SDS011;8962;52.538;13.266;2023-03-24T15:47:48;5.53;;;1.80;;